createdAt,value
2019-04-01T00:01:44.099Z,1.57
2019-04-01T00:04:12.672Z,1.92
2019-04-01T00:06:41.198Z,1.87
2019-04-01T00:09:09.769Z,1.90
2019-04-01T00:11:43.388Z,1.80
2019-04-01T00:14:11.925Z,1.80
2019-04-01T00:16:40.396Z,1.50
2019-04-01T00:19:08.953Z,1.80
2019-04-01T00:21:37.520Z,2.15
2019-04-01T00:24:06.136Z,1.77
2019-04-01T00:26:34.684Z,1.95
2019-04-01T00:29:03.195Z,2.27
2019-04-01T00:31:31.821Z,2.40
2019-04-01T00:34:00.327Z,1.95
2019-04-01T00:36:28.835Z,2.10
2019-04-01T00:38:57.372Z,1.87
2019-04-01T00:41:26.005Z,1.65
2019-04-01T00:43:56.887Z,2.22
2019-04-01T00:46:25.443Z,2.47
2019-04-01T00:48:54.075Z,2.42
2019-04-01T00:51:23.864Z,2.00
2019-04-01T00:53:52.510Z,2.37
2019-04-01T00:56:21.109Z,2.60
2019-04-01T00:58:49.620Z,2.85
2019-04-01T01:01:18.216Z,2.70
2019-04-01T01:03:46.789Z,2.85
2019-04-01T01:06:15.501Z,3.02
2019-04-01T01:08:44.998Z,2.83
2019-04-01T01:11:13.668Z,2.30
2019-04-01T01:13:42.210Z,2.10
2019-04-01T01:16:10.707Z,1.93
2019-04-01T01:18:39.258Z,2.10
2019-04-01T01:21:08.044Z,2.47
2019-04-01T01:23:38.063Z,2.12
2019-04-01T01:26:06.595Z,1.92
2019-04-01T01:28:35.248Z,1.98
2019-04-01T01:31:03.978Z,1.72
2019-04-01T01:33:32.435Z,1.57
2019-04-01T01:36:00.984Z,1.85
2019-04-01T01:38:29.447Z,2.22
2019-04-01T01:40:58.136Z,2.15
2019-04-01T01:43:26.679Z,2.20
2019-04-01T01:45:55.145Z,2.17
2019-04-01T01:48:23.599Z,2.00
2019-04-01T01:50:52.090Z,2.35
2019-04-01T01:53:20.620Z,2.50
2019-04-01T01:55:49.073Z,2.25
2019-04-01T01:58:17.576Z,2.20
2019-04-01T02:00:46.039Z,2.67
2019-04-01T02:03:14.500Z,2.22
2019-04-01T02:05:45.008Z,2.55
2019-04-01T02:08:13.483Z,1.90
2019-04-01T02:10:41.998Z,2.20
2019-04-01T02:13:10.573Z,2.05
2019-04-01T02:15:39.029Z,2.22
2019-04-01T02:18:07.474Z,2.60
2019-04-01T02:20:36.189Z,1.90
2019-04-01T02:23:04.772Z,2.45
2019-04-01T02:25:33.228Z,2.30
2019-04-01T02:28:01.725Z,1.87
2019-04-01T02:30:30.243Z,1.98
2019-04-01T02:32:58.696Z,1.87
2019-04-01T02:35:27.219Z,2.20
2019-04-01T02:37:55.697Z,2.55
2019-04-01T02:40:25.462Z,2.85
2019-04-01T02:42:55.226Z,3.02
2019-04-01T02:45:23.743Z,2.00
2019-04-01T02:47:52.218Z,2.55
2019-04-01T02:50:20.679Z,3.08
2019-04-01T02:52:49.136Z,2.10
2019-04-01T02:55:17.733Z,2.33
2019-04-01T02:57:46.205Z,2.10
2019-04-01T03:00:15.296Z,2.15
2019-04-01T03:02:43.788Z,1.90
2019-04-01T03:05:13.613Z,2.22
2019-04-01T03:07:42.154Z,2.62
2019-04-01T03:10:10.869Z,2.07
2019-04-01T03:12:39.328Z,2.27
2019-04-01T03:15:08.317Z,2.72
2019-04-01T03:17:36.955Z,2.42
2019-04-01T03:20:06.930Z,2.25
2019-04-01T03:22:35.449Z,2.55
2019-04-01T03:25:05.469Z,2.33
2019-04-01T03:27:33.980Z,2.77
2019-04-01T03:30:02.445Z,2.52
2019-04-01T03:32:31.060Z,2.33
2019-04-01T03:34:59.526Z,2.42
2019-04-01T03:37:28.078Z,3.22
2019-04-01T03:39:56.536Z,2.80
2019-04-01T03:42:25.161Z,2.67
2019-04-01T03:44:55.237Z,2.25
2019-04-01T03:47:23.988Z,2.98
2019-04-01T03:49:52.540Z,2.50
2019-04-01T03:52:21.156Z,2.50
2019-04-01T03:54:49.641Z,2.40
2019-04-01T03:57:18.224Z,2.25
2019-04-01T03:59:46.750Z,2.25
2019-04-01T04:02:15.191Z,2.30
2019-04-01T04:04:43.674Z,2.05
2019-04-01T04:07:12.129Z,2.80
2019-04-01T04:09:40.666Z,2.35
2019-04-01T04:12:09.352Z,2.47
2019-04-01T04:14:37.799Z,3.00
2019-04-01T04:17:06.430Z,2.37
2019-04-01T04:19:34.982Z,2.02
2019-04-01T04:22:03.529Z,2.45
2019-04-01T04:24:32.739Z,2.75
2019-04-01T04:27:01.303Z,2.52
2019-04-01T04:29:29.827Z,3.00
2019-04-01T04:31:58.297Z,3.12
2019-04-01T04:34:26.974Z,3.00
2019-04-01T04:36:55.487Z,4.15
2019-04-01T04:39:23.946Z,3.22
2019-04-01T04:41:52.533Z,2.60
2019-04-01T04:44:20.995Z,3.15
2019-04-01T04:46:51.188Z,3.35
2019-04-01T04:49:19.667Z,2.58
2019-04-01T04:51:48.173Z,2.95
2019-04-01T04:54:18.226Z,3.10
2019-04-01T04:56:46.704Z,3.20
2019-04-01T04:59:15.149Z,3.30
2019-04-01T05:01:43.609Z,2.87
2019-04-01T05:04:12.156Z,2.43
2019-04-01T05:06:40.612Z,2.87
2019-04-01T05:09:09.056Z,2.92
2019-04-01T05:11:37.561Z,3.00
2019-04-01T05:14:05.999Z,3.42
2019-04-01T05:16:34.469Z,3.12
2019-04-01T05:19:03.047Z,3.40
2019-04-01T05:21:33.408Z,3.30
2019-04-01T05:24:02.496Z,2.62
2019-04-01T05:26:33.526Z,3.40
2019-04-01T05:29:04.317Z,3.65
2019-04-01T05:31:35.678Z,3.30
2019-04-01T05:34:05.059Z,2.65
2019-04-01T05:36:33.920Z,2.62
2019-04-01T05:39:02.456Z,3.42
2019-04-01T05:41:32.101Z,2.65
2019-04-01T05:44:02.391Z,3.05
2019-04-01T05:46:31.478Z,3.10
2019-04-01T05:49:00.031Z,3.47
2019-04-01T05:51:28.971Z,2.77
2019-04-01T05:53:57.559Z,2.80
2019-04-01T05:56:26.176Z,3.55
2019-04-01T05:58:54.700Z,3.55
2019-04-01T06:01:25.036Z,3.22
2019-04-01T06:03:53.521Z,3.27
2019-04-01T06:06:21.984Z,3.12
2019-04-01T06:08:50.468Z,3.52
2019-04-01T06:11:19.132Z,3.10
2019-04-01T06:13:47.672Z,3.10
2019-04-01T06:16:16.378Z,3.20
2019-04-01T06:18:44.924Z,2.70
2019-04-01T06:21:14.524Z,3.52
2019-04-01T06:23:43.375Z,3.42
2019-04-01T06:26:11.991Z,2.65
2019-04-01T06:28:40.598Z,2.27
2019-04-01T06:31:09.519Z,2.30
2019-04-01T06:33:39.744Z,2.90
2019-04-01T06:36:08.193Z,2.50
2019-04-01T06:38:36.828Z,2.87
2019-04-01T06:41:10.607Z,1.98
2019-04-01T06:43:39.156Z,3.00
2019-04-01T06:46:09.492Z,2.80
2019-04-01T06:48:39.148Z,2.90
2019-04-01T06:51:07.862Z,3.33
2019-04-01T06:53:36.408Z,4.25
2019-04-01T06:56:05.125Z,3.90
2019-04-01T06:58:33.581Z,4.20
2019-04-01T07:01:02.214Z,3.77
2019-04-01T07:03:35.212Z,2.37
2019-04-01T07:06:04.762Z,3.07
2019-04-01T07:08:33.483Z,3.05
2019-04-01T07:11:02.558Z,2.60
2019-04-01T07:13:31.342Z,2.65
2019-04-01T07:16:14.319Z,2.80
2019-04-01T07:18:30.199Z,2.10
2019-04-01T07:20:59.205Z,2.77
2019-04-01T07:23:29.294Z,2.40
2019-04-01T07:25:57.981Z,2.47
2019-04-01T07:28:26.600Z,2.67
2019-04-01T07:30:55.542Z,2.62
2019-04-01T07:33:26.198Z,2.30
2019-04-01T07:35:54.718Z,2.37
2019-04-01T07:38:27.005Z,2.30
2019-04-01T07:40:58.993Z,2.20
2019-04-01T07:43:27.551Z,2.22
2019-04-01T07:45:59.910Z,2.58
2019-04-01T07:48:26.346Z,2.40
2019-04-01T07:50:54.794Z,2.55
2019-04-01T07:53:23.812Z,3.05
2019-04-01T07:55:55.168Z,3.10
2019-04-01T07:58:23.764Z,3.55
2019-04-01T08:00:52.222Z,3.77
2019-04-01T08:03:20.761Z,3.70
2019-04-01T08:05:54.555Z,3.85
2019-04-01T08:08:23.002Z,2.93
2019-04-01T08:10:51.491Z,3.05
2019-04-01T08:13:20.013Z,2.83
2019-04-01T08:15:49.129Z,2.98
2019-04-01T08:18:19.231Z,3.58
2019-04-01T08:20:47.821Z,2.67
2019-04-01T08:23:21.281Z,2.52
2019-04-01T08:25:51.156Z,2.77
2019-04-01T08:28:23.646Z,2.98
2019-04-01T08:30:51.329Z,2.70
2019-04-01T08:33:19.872Z,2.70
2019-04-01T08:35:48.384Z,2.40
2019-04-01T08:38:17.514Z,2.47
2019-04-01T08:40:47.454Z,2.62
2019-04-01T08:43:15.910Z,3.02
2019-04-01T08:45:46.497Z,2.42
2019-04-01T08:48:15.021Z,2.70
2019-04-01T08:50:47.223Z,2.58
2019-04-01T08:53:16.727Z,2.63
2019-04-01T08:55:46.930Z,2.80
2019-04-01T08:58:15.367Z,2.67
2019-04-01T09:00:44.072Z,3.27
2019-04-01T09:03:12.563Z,2.77
2019-04-01T09:05:41.041Z,3.12
2019-04-01T09:08:09.638Z,2.27
2019-04-01T09:10:40.571Z,2.67
2019-04-01T09:13:09.682Z,2.35
2019-04-01T09:15:38.675Z,2.83
2019-04-01T09:18:07.124Z,2.42
2019-04-01T09:20:35.943Z,2.10
2019-04-01T09:23:04.753Z,2.98
2019-04-01T09:25:33.276Z,2.80
2019-04-01T09:28:01.753Z,2.80
2019-04-01T09:30:30.427Z,2.85
2019-04-01T09:33:00.419Z,2.40
2019-04-01T09:35:29.008Z,3.17
2019-04-01T09:38:04.041Z,2.70
2019-04-01T09:40:32.584Z,2.62
2019-04-01T09:43:01.040Z,2.85
2019-04-01T09:45:29.512Z,2.70
2019-04-01T09:47:57.994Z,2.62
2019-04-01T09:50:26.582Z,3.05
2019-04-01T09:52:55.116Z,2.90
2019-04-01T09:55:24.134Z,3.20
2019-04-01T09:57:58.380Z,2.95
2019-04-01T10:00:27.111Z,2.50
2019-04-01T10:02:55.717Z,3.58
2019-04-01T10:05:25.403Z,3.22
2019-04-01T10:07:53.879Z,3.37
2019-04-01T10:10:22.593Z,3.17
2019-04-01T10:12:51.308Z,3.50
2019-04-01T10:15:20.167Z,3.52
2019-04-01T10:17:48.753Z,2.90
2019-04-01T10:20:17.676Z,2.98
2019-04-01T10:22:46.177Z,2.95
2019-04-01T10:25:14.955Z,2.87
2019-04-01T10:27:43.440Z,3.02
2019-04-01T10:30:12.930Z,3.85
2019-04-01T10:32:42.483Z,4.08
2019-04-01T10:35:11.501Z,2.92
2019-04-01T10:37:39.976Z,3.37
2019-04-01T10:40:10.302Z,2.50
2019-04-01T10:42:38.794Z,2.80
2019-04-01T10:45:10.069Z,2.85
2019-04-01T10:47:38.691Z,2.75
2019-04-01T10:50:11.493Z,2.70
2019-04-01T10:52:43.794Z,2.85
2019-04-01T10:55:11.843Z,2.90
2019-04-01T10:57:43.336Z,2.47
2019-04-01T11:00:11.682Z,2.97
2019-04-01T11:02:40.611Z,2.72
2019-04-01T11:05:09.329Z,3.68
2019-04-01T11:07:39.183Z,2.65
2019-04-01T11:10:11.467Z,2.92
2019-04-01T11:12:39.323Z,2.60
2019-04-01T11:15:08.724Z,2.87
2019-04-01T11:17:38.891Z,3.15
2019-04-01T11:20:08.637Z,2.92
2019-04-01T11:22:37.186Z,4.95
2019-04-01T11:25:10.271Z,3.55
2019-04-01T11:27:40.239Z,3.57
2019-04-01T11:30:13.542Z,3.17
2019-04-01T11:32:40.446Z,2.98
2019-04-01T11:35:09.361Z,3.16
2019-04-01T11:37:38.189Z,3.30
2019-04-01T11:40:11.425Z,2.67
2019-04-01T11:42:40.830Z,2.55
2019-04-01T11:45:11.273Z,3.00
2019-04-01T11:47:42.383Z,3.17
2019-04-01T11:50:13.092Z,2.72
2019-04-01T11:52:43.243Z,2.98
2019-04-01T11:55:13.189Z,2.67
2019-04-01T11:57:41.668Z,3.02
2019-04-01T12:00:16.810Z,2.70
2019-04-01T12:02:48.087Z,3.00
2019-04-01T12:05:17.904Z,3.10
2019-04-01T12:07:50.465Z,2.70
2019-04-01T12:10:20.578Z,2.90
2019-04-01T12:12:53.669Z,2.70
2019-04-01T12:15:22.155Z,2.65
2019-04-01T12:17:51.178Z,3.17
2019-04-01T12:20:19.752Z,3.50
2019-04-01T12:22:49.834Z,3.10
2019-04-01T12:25:18.382Z,3.00
2019-04-01T12:27:47.400Z,2.90
2019-04-01T12:30:20.733Z,2.98
2019-04-01T12:35:19.297Z,3.20
2019-04-01T12:37:49.661Z,2.98
2019-04-01T12:40:18.342Z,2.90
2019-04-01T12:42:50.607Z,3.35
2019-04-01T12:45:17.400Z,3.42
2019-04-01T12:47:45.981Z,3.83
2019-04-01T12:50:14.798Z,3.92
2019-04-01T12:52:43.275Z,3.22
2019-04-01T12:55:15.225Z,3.40
2019-04-01T12:57:43.838Z,3.12
2019-04-01T13:00:15.036Z,3.58
2019-04-01T13:02:45.766Z,3.15
2019-04-01T13:05:14.672Z,3.22
2019-04-01T13:07:45.672Z,3.58
2019-04-01T13:10:14.310Z,3.25
2019-04-01T13:12:44.453Z,3.02
2019-04-01T13:15:13.302Z,3.00
2019-04-01T13:17:45.571Z,3.60
2019-04-01T13:20:16.340Z,3.62
2019-04-01T13:22:47.684Z,3.20
2019-04-01T13:25:16.206Z,3.25
2019-04-01T13:27:44.694Z,3.80
2019-04-01T13:30:13.395Z,3.40
2019-04-01T13:32:41.923Z,3.03
2019-04-01T13:35:10.469Z,4.28
2019-04-01T13:37:38.925Z,3.10
2019-04-01T13:40:08.993Z,3.50
2019-04-01T13:42:39.879Z,3.70
2019-04-01T13:45:11.333Z,3.65
2019-04-01T13:47:41.385Z,3.05
2019-04-01T13:50:16.384Z,3.33
2019-04-01T13:52:45.571Z,3.95
2019-04-01T13:55:15.482Z,4.00
2019-04-01T13:57:44.077Z,3.85
2019-04-01T14:00:12.976Z,3.10
2019-04-01T14:02:41.909Z,3.30
2019-04-01T14:05:12.550Z,3.70
2019-04-01T14:07:40.993Z,3.60
2019-04-01T14:10:10.507Z,3.90
2019-04-01T14:12:42.361Z,3.58
2019-04-01T14:15:11.148Z,3.70
2019-04-01T14:17:39.650Z,4.05
2019-04-01T14:20:10.631Z,4.00
2019-04-01T14:22:40.238Z,3.50
2019-04-01T14:25:10.076Z,4.00
2019-04-01T14:27:39.510Z,3.80
2019-04-01T14:30:08.900Z,4.78
2019-04-01T14:32:37.363Z,4.50
2019-04-01T14:35:07.315Z,4.05
2019-04-01T14:37:35.844Z,5.28
2019-04-01T14:40:07.745Z,3.67
2019-04-01T14:42:37.472Z,3.83
2019-04-01T14:45:07.992Z,4.05
2019-04-01T14:47:36.463Z,4.05
2019-04-01T14:50:07.810Z,4.55
2019-04-01T14:52:36.781Z,4.00
2019-04-01T14:55:05.987Z,4.75
2019-04-01T14:57:34.817Z,4.15
2019-04-01T15:00:05.094Z,4.10
2019-04-01T15:02:33.543Z,3.95
2019-04-01T15:05:04.711Z,4.05
2019-04-01T15:07:32.299Z,3.77
2019-04-01T15:10:01.342Z,4.25
2019-04-01T15:12:29.885Z,4.87
2019-04-01T15:14:58.380Z,4.35
2019-04-01T15:17:26.842Z,4.77
2019-04-01T15:19:55.973Z,4.62
2019-04-01T15:22:47.089Z,4.67
2019-04-01T15:25:18.312Z,4.58
2019-04-01T15:27:48.105Z,5.15
2019-04-01T15:30:19.814Z,4.00
2019-04-01T15:32:48.287Z,4.42
2019-04-01T15:35:16.755Z,4.50
2019-04-01T15:37:48.689Z,4.70
2019-04-01T15:40:18.273Z,4.78
2019-04-01T15:42:47.356Z,4.20
2019-04-01T15:45:15.787Z,4.40
2019-04-01T15:47:44.640Z,4.97
2019-04-01T15:50:27.930Z,4.12
2019-04-01T15:52:48.955Z,5.00
2019-04-01T15:55:17.515Z,4.75
2019-04-01T15:57:47.956Z,4.63
2019-04-01T16:00:19.663Z,4.33
2019-04-01T16:02:48.246Z,4.83
2019-04-01T16:05:16.744Z,4.63
2019-04-01T16:07:45.227Z,4.75
2019-04-01T16:10:14.174Z,4.90
2019-04-01T16:12:42.649Z,4.92
2019-04-01T16:15:11.353Z,5.30
2019-04-01T16:17:41.540Z,5.07
2019-04-01T16:20:10.907Z,5.05
2019-04-01T16:22:39.442Z,4.55
2019-04-01T16:25:08.546Z,4.93
2019-04-01T16:27:37.127Z,4.53
2019-04-01T16:30:08.325Z,4.65
2019-04-01T16:32:37.054Z,4.95
2019-04-01T16:35:07.571Z,4.97
2019-04-01T16:37:36.102Z,4.77
2019-04-01T16:40:06.770Z,5.13
2019-04-01T16:42:35.315Z,5.05
2019-04-01T16:45:07.093Z,4.70
2019-04-01T16:47:35.593Z,4.28
2019-04-01T16:50:07.482Z,4.78
2019-04-01T16:52:36.763Z,5.03
2019-04-01T16:55:10.318Z,5.40
2019-04-01T16:57:43.626Z,5.35
2019-04-01T17:00:14.823Z,5.00
2019-04-01T17:02:43.441Z,4.42
2019-04-01T17:05:12.244Z,5.12
2019-04-01T17:07:41.171Z,4.53
2019-04-01T17:10:12.555Z,5.22
2019-04-01T17:12:41.136Z,4.70
2019-04-01T17:15:10.493Z,5.50
2019-04-01T17:17:40.554Z,5.03
2019-04-01T17:20:09.156Z,4.55
2019-04-01T17:22:37.627Z,5.42
2019-04-01T17:25:07.697Z,5.50
2019-04-01T17:27:36.378Z,5.70
2019-04-01T17:30:08.013Z,4.95
2019-04-01T17:32:36.525Z,4.80
2019-04-01T17:35:06.127Z,4.70
2019-04-01T17:37:34.663Z,5.03
2019-04-01T17:40:03.855Z,5.47
2019-04-01T17:42:32.332Z,5.50
2019-04-01T17:45:13.764Z,4.72
2019-04-01T17:47:42.354Z,5.60
2019-04-01T17:50:11.751Z,5.53
2019-04-01T17:52:41.471Z,5.37
2019-04-01T17:55:10.265Z,5.40
2019-04-01T17:57:39.798Z,5.42
2019-04-01T18:00:16.882Z,5.53
2019-04-01T18:02:45.354Z,6.40
2019-04-01T18:05:17.384Z,6.10
2019-04-01T18:07:45.976Z,5.62
2019-04-01T18:10:15.199Z,5.95
2019-04-01T18:12:46.851Z,5.47
2019-04-01T18:15:20.713Z,5.13
2019-04-01T18:17:49.345Z,6.25
2019-04-01T18:20:20.206Z,5.75
2019-04-01T18:22:49.785Z,5.80
2019-04-01T18:25:19.108Z,5.53
2019-04-01T18:27:47.706Z,5.90
2019-04-01T18:30:16.930Z,6.42
2019-04-01T18:32:45.400Z,6.00
2019-04-01T18:35:14.136Z,5.90
2019-04-01T18:37:42.724Z,6.12
2019-04-01T18:40:11.865Z,5.73
2019-04-01T18:42:43.162Z,6.62
2019-04-01T18:45:13.235Z,6.90
2019-04-01T18:47:41.719Z,6.10
2019-04-01T18:50:10.409Z,5.55
2019-04-01T18:52:38.882Z,5.90
2019-04-01T18:55:08.076Z,6.62
2019-04-01T18:57:36.819Z,5.78
2019-04-01T19:00:10.025Z,5.75
2019-04-01T19:02:38.490Z,5.80
2019-04-01T19:05:07.169Z,6.03
2019-04-01T19:07:35.997Z,5.22
2019-04-01T19:10:07.107Z,6.40
2019-04-01T19:12:36.130Z,5.83
2019-04-01T19:15:09.938Z,6.20
2019-04-01T19:17:38.413Z,6.42
2019-04-01T19:20:11.186Z,6.03
2019-04-01T19:22:40.305Z,6.87
2019-04-01T19:25:08.870Z,6.17
2019-04-01T19:27:37.405Z,6.37
2019-04-01T19:30:11.662Z,6.42
2019-04-01T19:35:09.505Z,6.95
2019-04-01T19:37:38.838Z,6.37
2019-04-01T19:40:10.580Z,6.78
2019-04-01T19:42:42.285Z,6.30
2019-04-01T19:45:12.795Z,6.45
2019-04-01T19:47:41.429Z,7.05
2019-04-01T19:50:10.734Z,6.35
2019-04-01T19:52:39.240Z,6.78
2019-04-01T19:55:08.536Z,6.45
2019-04-01T19:57:37.007Z,6.60
2019-04-01T20:00:07.353Z,6.42
2019-04-01T20:02:35.901Z,7.83
2019-04-01T20:05:08.963Z,7.75
2019-04-01T20:07:38.444Z,7.50
2019-04-01T20:10:09.880Z,7.78
2019-04-01T20:12:40.258Z,7.00
2019-04-01T20:15:12.751Z,7.10
2019-04-01T20:17:41.442Z,6.80
2019-04-01T20:20:10.459Z,6.83
2019-04-01T20:22:38.977Z,6.92
2019-04-01T20:25:08.748Z,6.30
2019-04-01T20:27:37.207Z,6.35
2019-04-01T20:30:09.379Z,6.28
2019-04-01T20:32:39.250Z,6.43
2019-04-01T20:35:22.824Z,6.28
2019-04-01T20:37:41.010Z,6.60
2019-04-01T20:40:10.224Z,7.05
2019-04-01T20:42:38.787Z,7.10
2019-04-01T20:45:13.486Z,7.03
2019-04-01T20:47:41.781Z,7.70
2019-04-01T20:50:13.391Z,7.67
2019-04-01T20:52:41.923Z,6.83
2019-04-01T20:55:13.447Z,6.80
2019-04-01T20:57:42.580Z,7.00
2019-04-01T21:00:11.310Z,6.63
2019-04-01T21:02:39.801Z,7.33
2019-04-01T21:05:09.542Z,7.47
2019-04-01T21:07:39.580Z,7.25
2019-04-01T21:10:08.683Z,6.95
2019-04-01T21:12:37.601Z,6.90
2019-04-01T21:15:08.021Z,7.25
2019-04-01T21:17:41.455Z,6.28
2019-04-01T21:20:09.686Z,7.03
2019-04-01T21:22:40.087Z,6.78
2019-04-01T21:25:09.565Z,7.47
2019-04-01T21:27:39.327Z,6.62
2019-04-01T21:30:11.768Z,7.47
2019-04-01T21:32:40.306Z,6.75
2019-04-01T21:35:09.622Z,8.55
2019-04-01T21:37:38.442Z,8.60
2019-04-01T21:40:08.900Z,8.85
2019-04-01T21:42:37.441Z,8.08
2019-04-01T21:45:07.456Z,8.53
2019-04-01T21:47:35.910Z,8.98
2019-04-01T21:50:06.966Z,9.05
2019-04-01T21:52:35.814Z,10.45
2019-04-01T21:55:08.042Z,10.10
2019-04-01T21:57:37.864Z,9.70
2019-04-01T22:00:11.600Z,9.95
2019-04-01T22:02:40.384Z,9.93
2019-04-01T22:05:10.094Z,10.28
2019-04-01T22:07:39.242Z,8.98
2019-04-01T22:10:07.787Z,9.18
2019-04-01T22:12:36.372Z,8.40
2019-04-01T22:15:05.903Z,9.33
2019-04-01T22:17:34.434Z,8.48
2019-04-01T22:20:03.835Z,8.90
2019-04-01T22:22:32.397Z,8.60
2019-04-01T22:25:01.268Z,8.53
2019-04-01T22:27:31.534Z,7.83
2019-04-01T22:30:00.071Z,8.15
2019-04-01T22:32:29.381Z,8.25
2019-04-01T22:34:57.827Z,7.53
2019-04-01T22:37:27.909Z,7.80
2019-04-01T22:39:56.806Z,7.78
2019-04-01T22:42:27.246Z,8.20
2019-04-01T22:44:56.227Z,8.65
2019-04-01T22:47:25.771Z,7.67
2019-04-01T22:49:54.269Z,7.83
2019-04-01T22:52:24.533Z,9.10
2019-04-01T22:54:53.043Z,7.62
2019-04-01T22:57:22.171Z,8.20
2019-04-01T22:59:53.158Z,8.40
2019-04-01T23:02:22.114Z,8.70
2019-04-01T23:04:52.869Z,8.20
2019-04-01T23:07:23.927Z,7.45
2019-04-01T23:09:52.414Z,7.87
2019-04-01T23:12:22.154Z,8.53
2019-04-01T23:14:50.927Z,7.87
2019-04-01T23:17:21.486Z,8.33
2019-04-01T23:19:50.267Z,8.03
2019-04-01T23:22:18.858Z,7.87
2019-04-01T23:24:47.345Z,8.38
2019-04-01T23:27:15.796Z,8.23
2019-04-01T23:29:44.295Z,8.08
2019-04-01T23:32:12.947Z,8.87
2019-04-01T23:34:42.358Z,8.48
2019-04-01T23:37:11.686Z,8.30
2019-04-01T23:39:41.507Z,8.55
2019-04-01T23:42:10.092Z,8.30
2019-04-01T23:44:38.535Z,8.43
2019-04-01T23:47:06.984Z,8.03
2019-04-01T23:49:35.452Z,8.25
2019-04-01T23:52:05.463Z,8.27
2019-04-01T23:54:36.218Z,7.97
2019-04-01T23:57:09.095Z,7.97
2019-04-01T23:59:41.841Z,8.55
